Time;durP1;ratioP1;P1;durP2;ratioP2;P2;SDS_P1;SDS_P2;PMS_P1;PMS_P2;Temp;Humidity;BMP_temperature;BMP_pressure;BME280_temperature;BME280_humidity;BME280_pressure;Samples;Min_cycle;Max_cycle;Signal;HPM_P1;HPM_P2
2022/03/30 00:01:45;;;;;;;10.70;9.60;;;10.10;75.20;;;8.87;75.24;96825.41;5003441;28;20469;-72
2022/03/30 00:04:12;;;;;;;10.90;9.53;;;10.10;77.10;;;9.00;75.05;96821.69;4999919;28;20458;-72
2022/03/30 00:06:40;;;;;;;13.43;11.07;;;10.20;77.30;;;8.91;74.96;96824.72;5001349;28;20976;-72
2022/03/30 00:09:08;;;;;;;12.10;10.13;;;10.10;77.20;;;8.84;76.34;96818.66;5008706;28;20467;-71
2022/03/30 00:11:35;;;;;;;13.27;11.47;;;10.10;78.00;;;8.79;76.56;96813.13;4997951;28;20966;-71
2022/03/30 00:14:02;;;;;;;19.37;13.57;;;10.00;78.80;;;8.79;77.23;96813.94;5000995;28;20459;-73
2022/03/30 00:16:29;;;;;;;17.10;13.17;;;10.00;79.90;;;8.64;77.94;96808.19;4993628;28;20574;-71
2022/03/30 00:18:57;;;;;;;17.27;12.67;;;9.90;82.10;;;8.68;78.41;96805.88;5008038;28;20932;-72
2022/03/30 00:21:23;;;;;;;17.17;14.13;;;9.90;82.90;;;8.67;78.32;96799.66;5003536;28;20465;-72
2022/03/30 00:23:52;;;;;;;16.93;14.33;;;9.90;83.70;;;8.62;78.97;96804.94;5015032;28;20459;-71
2022/03/30 00:26:19;;;;;;;19.57;15.30;;;9.90;84.50;;;8.67;79.32;96794.28;5000235;28;20485;-72
2022/03/30 00:28:46;;;;;;;19.57;16.17;;;9.90;85.20;;;8.70;78.98;96793.78;4998469;28;20466;-71
2022/03/30 00:31:15;;;;;;;23.23;15.90;;;9.80;85.30;;;8.69;78.69;96791.34;4998544;28;20455;-72
2022/03/30 00:33:42;;;;;;;17.43;14.67;;;9.80;85.60;;;8.67;79.05;96780.81;4998898;28;20994;-71
2022/03/30 00:36:09;;;;;;;17.10;13.33;;;9.80;85.50;;;8.60;79.89;96793.56;5013986;28;21069;-71
2022/03/30 00:38:36;;;;;;;21.57;15.83;;;9.80;86.10;;;8.51;80.12;96768.88;5000632;28;20459;-71
2022/03/30 00:41:05;;;;;;;20.53;16.53;;;9.70;86.30;;;8.60;79.87;96782.81;5013891;28;20463;-72
2022/03/30 00:43:33;;;;;;;15.77;14.07;;;9.80;87.20;;;8.39;80.72;96765.31;5002210;28;22216;-73
2022/03/30 00:46:00;;;;;;;19.33;16.30;;;9.70;87.20;;;8.53;79.68;96774.00;4999578;28;20896;-72
2022/03/30 00:48:27;;;;;;;19.37;15.77;;;9.70;86.90;;;8.57;78.76;96764.41;5012046;28;20863;-74
2022/03/30 00:50:54;;;;;;;17.97;15.40;;;9.70;85.60;;;8.48;79.35;96770.13;5000840;28;20491;-73
2022/03/30 00:53:21;;;;;;;17.47;14.60;;;9.70;85.70;;;8.52;79.51;96765.13;5000569;28;20455;-73
2022/03/30 00:55:48;;;;;;;16.80;14.90;;;9.70;86.80;;;8.50;79.71;96756.47;4999698;28;20576;-73
2022/03/30 00:58:17;;;;;;;19.70;16.87;;;9.70;86.30;;;8.56;79.18;96760.06;4998876;28;20462;-71
2022/03/30 01:00:44;;;;;;;27.63;17.33;;;9.70;86.10;;;8.46;79.94;96758.75;5005958;28;20489;-71
2022/03/30 01:03:12;;;;;;;22.10;17.20;;;9.70;86.30;;;8.51;79.89;96752.72;5008026;28;20475;-71
2022/03/30 01:05:39;;;;;;;18.40;16.33;;;9.70;86.50;;;8.45;79.89;96742.84;5009634;28;20462;-72
2022/03/30 01:08:06;;;;;;;22.87;17.20;;;9.70;86.60;;;8.59;80.01;96751.56;5021678;28;20534;-72
2022/03/30 01:10:33;;;;;;;18.77;16.13;;;9.80;86.70;;;8.50;80.35;96748.38;5004439;28;20510;-71
2022/03/30 01:13:03;;;;;;;22.40;16.53;;;9.70;86.90;;;8.38;80.83;96736.75;5021813;28;20916;-71
2022/03/30 01:15:32;;;;;;;23.10;17.40;;;9.60;87.80;;;8.32;81.17;96742.00;4996287;28;20467;-72
2022/03/30 01:17:59;;;;;;;20.17;17.97;;;9.50;88.30;;;8.28;81.49;96731.97;5000371;28;20525;-72
2022/03/30 01:20:27;;;;;;;23.30;17.93;;;9.50;89.00;;;8.17;81.96;96731.69;4996928;28;20973;-72
2022/03/30 01:22:56;;;;;;;21.23;17.50;;;9.40;89.20;;;8.14;82.11;96737.53;5002077;28;20535;-71
2022/03/30 01:25:23;;;;;;;20.50;17.23;;;9.40;89.40;;;8.09;81.70;96732.03;5003040;28;20458;-72
2022/03/30 01:27:50;;;;;;;22.10;18.80;;;9.30;90.00;;;8.02;82.79;96731.31;5006112;28;20455;-72
2022/03/30 01:33:06;;;;;;;23.17;17.93;;;9.20;90.50;;;7.89;83.01;96722.41;5002114;28;20443;-72
2022/03/30 01:35:33;;;;;;;24.20;18.10;;;9.10;90.60;;;7.83;83.20;96712.56;5006749;28;20550;-71
2022/03/30 01:38:02;;;;;;;24.17;18.90;;;9.10;90.80;;;7.78;83.88;96701.66;5005501;28;20884;-72
2022/03/30 01:40:29;;;;;;;25.60;20.10;;;9.00;91.20;;;7.84;83.90;96699.94;5002856;28;20461;-71
2022/03/30 01:42:56;;;;;;;26.90;19.70;;;9.00;91.60;;;7.93;84.02;96693.19;5004259;28;21100;-72
2022/03/30 01:45:23;;;;;;;24.97;20.00;;;9.10;91.70;;;7.92;84.34;96692.34;5015552;28;20462;-73
2022/03/30 01:47:54;;;;;;;30.43;20.23;;;9.10;91.80;;;7.96;84.26;96692.72;5002054;28;20471;-74
2022/03/30 01:50:22;;;;;;;25.43;18.67;;;9.10;91.70;;;7.72;85.34;96678.41;5001458;28;20509;-73
2022/03/30 01:52:49;;;;;;;20.77;18.30;;;9.10;92.20;;;7.75;85.67;96689.53;5002598;28;20471;-73
2022/03/30 01:55:19;;;;;;;25.20;19.60;;;9.00;92.80;;;7.88;85.78;96688.50;5009316;28;20496;-72
2022/03/30 01:57:46;;;;;;;23.37;18.70;;;9.00;93.30;;;7.77;86.59;96689.28;5017576;28;20998;-72
2022/03/30 02:00:17;;;;;;;25.33;18.77;;;9.00;93.90;;;7.90;86.02;96680.19;5004687;28;20470;-72
2022/03/30 02:02:46;;;;;;;21.07;17.47;;;9.10;93.70;;;7.83;86.63;96666.03;5003924;28;20474;-72
2022/03/30 02:05:13;;;;;;;21.10;18.20;;;9.10;94.40;;;7.83;86.10;96666.03;5001581;28;20511;-73
2022/03/30 02:07:40;;;;;;;24.70;19.10;;;9.10;93.90;;;7.92;85.96;96668.13;5007097;28;20466;-72
2022/03/30 02:10:09;;;;;;;24.77;19.30;;;9.10;93.80;;;7.88;86.32;96668.81;5002185;28;20451;-73
2022/03/30 02:12:39;;;;;;;23.67;19.60;;;9.10;93.60;;;7.97;85.91;96669.34;5004691;28;20467;-72
2022/03/30 02:15:07;;;;;;;24.60;20.07;;;9.10;93.60;;;7.96;85.33;96668.50;5000744;28;21216;-72
2022/03/30 02:17:34;;;;;;;25.30;19.40;;;9.20;92.90;;;7.90;85.67;96659.50;5000842;28;20561;-72
2022/03/30 02:20:02;;;;;;;26.37;18.70;;;9.10;93.20;;;7.92;85.93;96664.66;5012981;28;20443;-72
2022/03/30 02:22:29;;;;;;;26.90;19.20;;;9.20;93.10;;;7.90;85.82;96648.72;5003812;28;21018;-72
2022/03/30 02:24:56;;;;;;;25.27;19.90;;;9.20;93.10;;;7.93;86.01;96642.06;4995593;28;20553;-73
2022/03/30 02:27:23;;;;;;;21.23;18.80;;;9.20;93.10;;;7.83;86.03;96631.06;5002215;28;20502;-71
2022/03/30 02:29:54;;;;;;;26.93;20.90;;;9.20;92.90;;;7.86;85.77;96642.19;4998909;28;20830;-71
2022/03/30 02:32:21;;;;;;;25.43;19.50;;;9.20;93.20;;;7.84;86.18;96644.28;5014776;28;20456;-72
2022/03/30 02:34:48;;;;;;;26.87;18.97;;;9.10;93.40;;;7.86;85.82;96644.88;5014040;28;20546;-72
2022/03/30 02:37:15;;;;;;;24.13;19.10;;;9.10;93.30;;;7.92;86.53;96635.88;4999402;28;20466;-71
2022/03/30 02:39:42;;;;;;;26.70;19.53;;;9.10;93.40;;;7.80;86.44;96646.63;4999989;28;20463;-71
2022/03/30 02:42:09;;;;;;;23.80;18.30;;;9.20;93.30;;;7.82;86.97;96649.09;5000656;28;20882;-72
2022/03/30 02:44:37;;;;;;;23.03;19.53;;;9.10;93.80;;;7.82;86.00;96627.56;5002625;28;21030;-71
2022/03/30 02:47:07;;;;;;;26.17;18.70;;;9.20;93.30;;;7.93;86.66;96640.19;5015344;28;21264;-72
2022/03/30 02:49:34;;;;;;;22.20;18.83;;;9.10;94.10;;;7.92;86.51;96635.88;5004411;28;20538;-71
2022/03/30 02:52:01;;;;;;;26.13;18.27;;;9.10;94.10;;;7.82;86.20;96641.03;5003668;28;20464;-72
2022/03/30 02:54:28;;;;;;;27.40;20.80;;;9.10;93.70;;;7.99;85.67;96637.66;5000297;28;20547;-72
2022/03/30 02:56:56;;;;;;;26.90;19.37;;;9.10;93.40;;;7.98;85.87;96633.31;5006261;28;20476;-71
2022/03/30 02:59:23;;;;;;;23.97;19.50;;;9.10;93.50;;;7.94;85.79;96625.69;5002110;28;21053;-72
2022/03/30 03:01:51;;;;;;;23.60;20.13;;;9.10;93.60;;;7.98;85.30;96622.56;5019862;28;20537;-72
2022/03/30 03:04:19;;;;;;;24.90;18.70;;;9.10;93.30;;;8.00;85.24;96618.56;5003361;28;20494;-72
2022/03/30 03:06:46;;;;;;;25.73;17.83;;;9.20;93.10;;;7.99;85.62;96622.31;5016655;28;20459;-72
2022/03/30 03:09:13;;;;;;;24.43;18.27;;;9.20;92.90;;;7.98;85.70;96626.06;5000215;28;20818;-72
2022/03/30 03:11:40;;;;;;;28.60;20.43;;;9.20;92.90;;;7.89;85.87;96617.50;5021962;28;20470;-71
2022/03/30 03:14:09;;;;;;;24.30;19.63;;;9.20;93.00;;;7.89;85.46;96606.75;4999537;28;20554;-72
2022/03/30 03:16:36;;;;;;;25.57;18.10;;;9.10;93.40;;;7.90;85.57;96619.16;5009709;28;20480;-73
2022/03/30 03:19:03;;;;;;;21.17;18.37;;;9.10;92.90;;;7.89;86.00;96617.50;4990655;28;20543;-74
2022/03/30 03:21:32;;;;;;;24.10;19.53;;;9.10;93.30;;;7.91;85.46;96607.34;5002686;28;20469;-74
2022/03/30 03:23:59;;;;;;;22.90;18.77;;;9.10;93.10;;;7.86;85.99;96617.97;5002761;28;20468;-73
2022/03/30 03:26:26;;;;;;;23.37;19.20;;;9.10;92.90;;;7.89;85.36;96617.50;5002783;28;20535;-73
2022/03/30 03:28:53;;;;;;;27.23;18.20;;;9.10;92.50;;;7.72;85.28;96573.53;5007344;28;20959;-73
2022/03/30 03:31:20;;;;;;;23.73;18.97;;;9.20;92.70;;;7.89;85.41;96617.50;5003948;28;20470;-74
2022/03/30 03:33:47;;;;;;;24.43;18.63;;;9.10;92.60;;;7.83;85.87;96613.06;5003207;28;20478;-73
2022/03/30 03:36:14;;;;;;;26.67;17.70;;;9.00;93.10;;;7.92;85.54;96610.84;5005234;28;20475;-73
2022/03/30 03:38:43;;;;;;;26.63;18.90;;;9.10;93.10;;;8.00;84.86;96613.19;5004298;28;20531;-75
2022/03/30 03:41:11;;;;;;;26.47;19.03;;;9.10;92.70;;;8.05;84.43;96605.25;4994200;28;20470;-74
2022/03/30 03:43:38;;;;;;;26.13;17.87;;;9.20;92.30;;;8.13;83.53;96596.00;5003620;28;21105;-74
2022/03/30 03:46:06;;;;;;;26.30;20.27;;;9.30;91.60;;;8.16;84.03;96603.59;5011292;28;20511;-74
2022/03/30 03:48:33;;;;;;;24.90;19.00;;;9.30;91.40;;;8.12;83.38;96604.31;5017896;28;20470;-74
2022/03/30 03:51:00;;;;;;;25.63;19.10;;;9.30;91.20;;;8.08;83.62;96598.56;5002131;28;20550;-72
2022/03/30 03:53:27;;;;;;;23.27;18.50;;;9.30;91.10;;;7.89;84.07;96577.16;5000210;28;20460;-72
2022/03/30 03:55:55;;;;;;;26.73;18.60;;;9.30;91.20;;;7.93;83.99;96594.47;5014523;28;20548;-72
2022/03/30 03:58:22;;;;;;;24.83;20.80;;;9.20;91.30;;;7.85;84.67;96583.25;5006560;28;20456;-72
2022/03/30 04:00:50;;;;;;;22.03;18.77;;;9.20;92.10;;;7.90;84.99;96592.25;4996027;28;20463;-72
2022/03/30 04:03:17;;;;;;;29.23;20.10;;;9.20;92.30;;;7.92;84.41;96581.28;5003909;28;20649;-72
2022/03/30 04:05:43;;;;;;;27.33;19.60;;;9.20;91.60;;;7.87;84.29;96587.34;5005429;28;20584;-71
2022/03/30 04:08:11;;;;;;;26.73;18.80;;;9.10;91.80;;;7.97;84.43;96591.34;5002505;28;20964;-71
2022/03/30 04:10:39;;;;;;;23.00;19.60;;;9.20;91.80;;;7.98;83.56;96585.72;4999107;28;20458;-73
2022/03/30 04:13:07;;;;;;;25.63;18.00;;;9.20;91.30;;;8.00;84.02;96586.28;5014821;28;21034;-71
2022/03/30 04:15:35;;;;;;;25.73;18.03;;;9.20;91.40;;;7.97;84.36;96581.38;4999768;28;20483;-73
2022/03/30 04:18:03;;;;;;;30.93;17.90;;;9.20;91.70;;;7.94;84.87;96585.34;5003074;28;21008;-72
2022/03/30 04:20:31;;;;;;;25.20;18.60;;;9.10;91.90;;;8.03;83.92;96588.50;5000467;28;20963;-72
2022/03/30 04:22:58;;;;;;;22.77;18.00;;;9.20;91.50;;;7.91;84.27;96583.13;5000749;28;20491;-72
2022/03/30 04:25:25;;;;;;;20.97;17.47;;;9.10;91.30;;;7.98;84.06;96582.22;4996548;28;20526;-73
2022/03/30 04:27:53;;;;;;;24.43;19.20;;;9.20;91.70;;;7.90;84.71;96581.50;5001934;28;21262;-72
2022/03/30 04:30:23;;;;;;;23.63;18.27;;;9.20;91.80;;;7.86;84.28;96574.97;5001892;28;20460;-76
2022/03/30 04:32:50;;;;;;;25.53;19.73;;;9.10;91.90;;;7.95;84.20;96578.13;5005113;28;20452;-73
2022/03/30 04:35:22;;;;;;;24.00;16.63;;;9.10;91.60;;;7.78;84.45;96548.41;5000670;28;20538;-73
2022/03/30 04:37:48;;;;;;;22.27;17.10;;;9.10;91.80;;;7.96;83.80;96570.84;4999150;28;20471;-71
2022/03/30 04:40:15;;;;;;;23.63;18.70;;;9.10;91.40;;;7.85;84.15;96569.81;4998864;28;20466;-74
2022/03/30 04:42:43;;;;;;;26.10;18.73;;;9.10;91.50;;;7.77;84.71;96566.41;5019477;28;20499;-73
2022/03/30 04:45:10;;;;;;;25.77;18.30;;;9.00;91.70;;;7.73;84.55;96548.28;5004520;28;20463;-74
2022/03/30 04:47:38;;;;;;;25.83;19.10;;;9.10;92.10;;;7.69;85.08;96560.56;5010961;28;20827;-76
2022/03/30 04:50:06;;;;;;;22.00;17.93;;;9.00;92.00;;;7.72;85.56;96557.41;5002932;28;20461;-74
2022/03/30 04:52:33;;;;;;;27.87;19.93;;;8.90;92.80;;;7.80;85.27;96554.38;5004623;28;20461;-69
2022/03/30 04:55:00;;;;;;;26.40;19.27;;;9.00;92.80;;;7.89;85.60;96555.66;5002812;28;20467;-73
2022/03/30 04:57:27;;;;;;;24.30;18.87;;;9.00;93.30;;;7.77;85.37;96549.47;5007009;28;20478;-72
2022/03/30 04:59:54;;;;;;;23.43;17.90;;;9.10;92.70;;;7.72;85.73;96557.41;5011922;28;20469;-73
2022/03/30 05:02:22;;;;;;;25.70;19.93;;;9.00;92.70;;;7.68;86.31;96546.28;5007604;28;20500;-69
2022/03/30 05:04:50;;;;;;;23.13;18.67;;;9.00;93.50;;;7.90;87.48;96554.59;5009339;28;20497;-73
2022/03/30 05:07:17;;;;;;;28.73;19.53;;;9.00;95.00;;;7.93;86.16;96543.38;5005758;28;20921;-71
2022/03/30 05:09:44;;;;;;;24.87;17.50;;;9.10;94.10;;;7.83;86.08;96551.22;5008365;28;20545;-71
2022/03/30 05:12:11;;;;;;;28.43;18.87;;;9.00;93.30;;;7.93;86.46;96548.75;5005873;28;20479;-72
2022/03/30 05:14:38;;;;;;;24.07;19.80;;;9.10;94.10;;;7.78;86.73;96545.72;5015401;28;21045;-71
2022/03/30 05:17:05;;;;;;;23.80;19.10;;;9.00;94.00;;;7.81;86.11;96545.28;5005239;28;20473;-73
2022/03/30 05:19:32;;;;;;;24.77;19.27;;;9.10;93.10;;;7.67;86.96;96528.53;5003715;28;20468;-70
2022/03/30 05:22:01;;;;;;;24.07;19.10;;;9.00;94.00;;;7.42;86.77;96504.56;5007560;28;20459;-71
2022/03/30 05:24:28;;;;;;;26.77;20.33;;;8.90;93.90;;;7.72;86.91;96530.53;5007513;28;20490;-71
2022/03/30 05:26:55;;;;;;;25.73;19.77;;;8.90;94.30;;;7.59;87.99;96535.06;5007001;28;20576;-70
2022/03/30 05:29:22;;;;;;;27.23;20.50;;;8.90;94.50;;;7.61;88.59;96524.91;5007932;28;20453;-71
2022/03/30 05:31:49;;;;;;;22.33;19.40;;;8.90;95.50;;;7.71;87.06;96528.91;5004913;28;20770;-72
2022/03/30 05:34:16;;;;;;;23.10;19.77;;;8.90;94.50;;;7.75;87.91;96524.69;4994501;28;20456;-71
2022/03/30 05:36:43;;;;;;;25.77;19.57;;;8.90;95.20;;;7.77;87.36;96522.56;5005236;28;20483;-70
2022/03/30 05:39:12;;;;;;;29.97;19.03;;;9.00;94.80;;;7.72;88.14;96530.53;5001151;28;20570;-71
2022/03/30 05:41:39;;;;;;;28.50;20.17;;;9.00;95.20;;;7.82;87.18;96528.09;5003568;28;20469;-73
2022/03/30 05:44:06;;;;;;;28.00;20.10;;;9.10;94.10;;;7.89;87.42;96523.38;5005634;28;20464;-75
2022/03/30 05:46:35;;;;;;;27.73;19.87;;;9.10;94.50;;;7.88;86.70;96520.91;5008149;28;20467;-73
2022/03/30 05:49:02;;;;;;;21.70;18.13;;;9.10;93.60;;;7.78;86.83;96508.91;5003895;28;20473;-74
2022/03/30 05:51:29;;;;;;;25.37;20.77;;;9.10;93.80;;;7.93;87.14;96526.44;5001837;28;20498;-73
2022/03/30 05:53:56;;;;;;;22.20;19.30;;;9.10;94.10;;;7.81;88.42;96523.75;5011190;28;20454;-74
2022/03/30 05:57:00;;;;;;;27.20;19.87;;;9.10;94.50;;;8.04;87.51;96517.53;5002764;28;20510;-73
2022/03/30 05:59:17;;;;;;;24.20;19.67;;;9.20;95.10;;;8.31;85.82;96521.59;4999669;28;20463;-71
2022/03/30 06:01:44;;;;;;;26.67;20.00;;;9.40;93.70;;;8.26;84.88;96492.69;5003829;28;20554;-74
2022/03/30 06:04:11;;;;;;;27.47;19.10;;;9.50;92.60;;;8.41;84.50;96519.09;5017305;28;20447;-73
2022/03/30 06:06:38;;;;;;;23.80;19.20;;;9.60;92.10;;;8.31;84.94;96518.91;5004712;28;20547;-74
2022/03/30 06:09:07;;;;;;;24.43;19.90;;;9.60;92.30;;;8.34;84.72;96521.09;5017331;28;20502;-73
2022/03/30 06:11:36;;;;;;;27.30;19.43;;;9.60;91.70;;;8.37;84.91;96520.63;5005578;28;20458;-74
2022/03/30 06:14:03;;;;;;;25.70;18.67;;;9.60;91.90;;;8.31;85.24;96514.31;5003301;28;20884;-74
2022/03/30 06:16:30;;;;;;;22.07;18.37;;;9.60;92.10;;;8.49;84.04;96512.50;5017428;28;20894;-69
2022/03/30 06:18:58;;;;;;;23.67;18.70;;;9.70;91.50;;;8.59;82.73;96518.13;5004227;28;20998;-73
2022/03/30 06:21:25;;;;;;;24.90;19.43;;;9.70;90.80;;;8.36;82.99;96468.69;5013226;28;20485;-70
2022/03/30 06:23:52;;;;;;;22.47;18.80;;;9.80;90.90;;;8.98;81.68;96520.19;4991503;28;20476;-70
2022/03/30 06:26:20;;;;;;;31.53;18.50;;;10.00;89.80;;;9.02;80.86;96518.66;5001860;28;20466;-70
2022/03/30 06:28:49;;;;;;;20.90;18.13;;;10.10;88.20;;;8.94;80.40;96519.06;4995353;28;20456;-69
2022/03/30 06:31:17;;;;;;;22.83;18.33;;;10.10;87.10;;;9.05;80.11;96518.19;4998729;28;20468;-70
2022/03/30 06:33:44;;;;;;;25.65;19.50;;;10.20;86.40;;;8.99;80.12;96519.13;4996486;28;20465;-67
2022/03/30 06:36:12;;;;;;;22.77;18.27;;;10.10;86.30;;;9.21;78.86;96523.84;5015148;28;20300;-73
2022/03/30 06:38:39;;;;;;;26.13;20.30;;;10.20;85.50;;;9.25;78.26;96506.13;5002533;28;20463;-70
2022/03/30 06:41:07;;;;;;;23.60;18.97;;;10.40;84.20;;;9.38;77.33;96521.13;5003103;28;20467;-72
2022/03/30 06:43:34;;;;;;;23.10;17.83;;;10.50;83.40;;;9.53;76.80;96506.28;5003035;28;20553;-73
2022/03/30 06:46:03;;;;;;;20.47;18.07;;;10.60;83.20;;;9.50;76.94;96504.91;5003296;28;20954;-74
2022/03/30 06:48:31;;;;;;;24.07;18.17;;;10.60;82.80;;;9.58;76.15;96500.97;5002500;28;20579;-74
2022/03/30 06:50:58;;;;;;;23.27;17.83;;;10.60;82.50;;;9.85;76.37;96505.66;5000716;28;20472;-72
2022/03/30 06:53:25;;;;;;;23.77;17.90;;;10.80;82.50;;;9.90;75.31;96500.38;5003306;28;20471;-72
2022/03/30 06:55:52;;;;;;;22.20;19.30;;;11.00;81.50;;;10.04;75.01;96498.13;5018952;28;20478;-73
2022/03/30 06:58:22;;;;;;;20.33;17.20;;;11.00;81.20;;;9.76;74.90;96498.00;5000748;28;20541;-72
2022/03/30 07:00:49;;;;;;;23.37;18.97;;;10.90;80.80;;;9.59;75.31;96491.81;5000950;28;20475;-68
2022/03/30 07:03:19;;;;;;;22.87;19.13;;;10.80;80.50;;;9.83;74.79;96497.00;4996317;28;20479;-75
2022/03/30 07:05:46;;;;;;;22.20;18.67;;;10.80;80.90;;;9.59;75.09;96498.03;4996969;28;20459;-74
2022/03/30 07:10:58;;;;;;;24.40;19.20;;;10.70;80.70;;;9.58;75.40;96499.09;4993911;28;20463;-69
2022/03/30 07:13:25;;;;;;;23.70;17.93;;;10.70;81.00;;;9.89;75.52;96506.81;5003919;28;20460;-75
2022/03/30 07:15:52;;;;;;;23.47;17.83;;;10.90;81.40;;;9.72;75.02;96506.84;4998343;28;21253;-73
2022/03/30 07:18:20;;;;;;;27.73;18.77;;;10.90;80.70;;;9.61;75.99;96505.88;4996875;28;20488;-74
2022/03/30 07:20:47;;;;;;;22.93;19.40;;;10.80;80.80;;;9.59;75.83;96497.22;4998895;28;20447;-72
2022/03/30 07:23:15;;;;;;;25.48;22.58;;;10.80;81.20;;;9.69;76.39;96488.47;4992169;28;20463;-73
2022/03/30 07:25:42;;;;;;;28.13;20.20;;;10.80;81.50;;;9.74;76.08;96500.16;5005484;28;20614;-72
2022/03/30 07:28:09;;;;;;;25.57;18.63;;;10.90;81.80;;;10.16;74.24;96511.47;5001389;28;21029;-74
2022/03/30 07:30:37;;;;;;;25.07;21.80;;;11.10;81.10;;;9.58;75.87;96452.44;5011008;28;22470;-73
2022/03/30 07:33:05;;;;;;;23.60;20.67;;;11.00;81.20;;;9.97;75.02;96519.06;5005436;28;21052;-74
2022/03/30 07:35:33;;;;;;;24.10;18.70;;;11.00;81.30;;;10.05;74.19;96511.38;5003900;28;20839;-74
2022/03/30 07:38:01;;;;;;;25.53;19.67;;;11.10;80.60;;;9.82;75.92;96522.34;5007295;28;20487;-74
2022/03/30 07:40:31;;;;;;;25.70;19.20;;;11.00;81.60;;;9.69;76.17;96518.13;5002645;28;20551;-75
2022/03/30 07:42:59;;;;;;;26.17;21.43;;;10.90;81.80;;;9.55;78.46;96514.94;5000508;28;20455;-74
2022/03/30 07:45:26;;;;;;;35.27;26.23;;;10.90;83.00;;;9.55;78.77;96526.53;4998948;28;20491;-75
2022/03/30 07:47:54;;;;;;;31.53;23.80;;;10.80;83.90;;;9.52;78.45;96518.13;5005569;28;20470;-74
2022/03/30 07:50:21;;;;;;;26.40;21.33;;;10.70;84.40;;;9.43;79.62;96523.09;4998323;28;20462;-75
2022/03/30 07:52:50;;;;;;;30.70;23.00;;;10.60;84.30;;;9.55;78.35;96529.25;5001001;28;20834;-74
2022/03/30 07:55:18;;;;;;;26.17;19.83;;;10.70;84.40;;;9.81;77.89;96520.72;5017248;28;20455;-74
2022/03/30 07:57:45;;;;;;;23.27;19.40;;;10.80;84.80;;;9.69;79.79;96527.03;4997860;28;20482;-75
2022/03/30 08:00:16;;;;;;;23.37;20.67;;;10.80;85.80;;;9.62;78.33;96511.00;4998995;28;20870;-75
2022/03/30 08:02:44;;;;;;;24.47;19.83;;;10.80;84.00;;;9.70;77.83;96527.84;5000382;28;21265;-75
2022/03/30 08:05:13;;;;;;;23.00;19.83;;;10.80;84.00;;;9.51;79.27;96520.03;4998280;28;20467;-74
2022/03/30 08:07:40;;;;;;;29.13;25.10;;;10.70;84.60;;;9.61;78.96;96511.25;5003480;28;20486;-74
2022/03/30 08:10:10;;;;;;;31.70;25.17;;;10.70;85.20;;;9.87;78.06;96525.16;5002587;28;20463;-74
2022/03/30 08:12:38;;;;;;;27.97;24.70;;;10.80;85.50;;;9.72;77.71;96490.66;4997025;28;20464;-75
2022/03/30 08:15:08;;;;;;;29.43;22.40;;;10.90;84.40;;;9.75;77.80;96512.56;5000520;28;20459;-74
2022/03/30 08:17:36;;;;;;;23.13;20.27;;;10.90;83.70;;;9.83;77.49;96514.03;4996879;28;20505;-73
2022/03/30 08:20:04;;;;;;;28.00;22.57;;;11.00;83.70;;;9.67;77.68;96515.66;5005418;28;20508;-73
2022/03/30 08:22:30;;;;;;;33.20;23.20;;;10.90;83.40;;;9.67;79.16;96512.16;5004897;28;20553;-74
2022/03/30 08:25:00;;;;;;;28.60;21.53;;;10.90;85.20;;;9.67;78.58;96512.16;4997210;28;20481;-74
2022/03/30 08:27:32;;;;;;;25.70;21.03;;;10.90;84.00;;;9.85;79.29;96517.28;4998112;28;20459;-74
2022/03/30 08:30:00;;;;;;;28.37;22.10;;;10.90;85.20;;;9.68;79.71;96509.19;4997430;28;20563;-74
2022/03/30 08:32:28;;;;;;;24.37;19.73;;;10.90;85.60;;;9.74;77.66;96504.72;5000127;28;20449;-74
2022/03/30 08:34:57;;;;;;;28.87;22.30;;;10.80;84.60;;;9.78;78.24;96505.84;4993626;28;20543;-74
2022/03/30 08:37:24;;;;;;;30.67;23.73;;;10.80;85.00;;;9.54;79.00;96500.66;5010100;28;20484;-75
2022/03/30 08:39:53;;;;;;;27.47;24.20;;;10.80;84.80;;;9.85;79.68;96505.66;5007985;28;20538;-74
2022/03/30 08:42:21;;;;;;;23.83;20.87;;;10.80;87.70;;;10.10;76.18;96509.78;5017027;28;20626;-73
2022/03/30 08:44:50;;;;;;;25.90;21.53;;;11.10;83.10;;;9.83;77.34;96470.88;4997310;28;20467;-74
2022/03/30 08:47:17;;;;;;;27.33;22.03;;;11.10;83.90;;;9.99;77.53;96506.16;5001003;28;20467;-74
2022/03/30 08:49:47;;;;;;;27.93;23.80;;;11.10;83.20;;;9.95;79.27;96515.81;5001297;28;20497;-75
2022/03/30 08:52:16;;;;;;;27.70;22.53;;;11.00;85.20;;;10.04;78.02;96504.34;4998151;28;20471;-75
2022/03/30 08:54:44;;;;;;;32.20;23.80;;;11.20;84.70;;;10.18;77.75;96499.38;5004999;28;20607;-75
2022/03/30 08:57:12;;;;;;;26.00;22.67;;;11.20;84.70;;;10.14;78.14;96508.22;4998034;28;20483;-74
2022/03/30 08:59:40;;;;;;;26.80;22.07;;;11.20;83.80;;;9.98;76.91;96501.81;4998849;28;20470;-76
2022/03/30 09:02:09;;;;;;;27.50;20.77;;;11.20;83.10;;;9.99;77.40;96500.75;5001541;28;20554;-75
2022/03/30 09:04:38;;;;;;;24.77;21.97;;;11.10;84.00;;;9.95;79.24;96500.44;4996634;28;20455;-73
2022/03/30 09:07:05;;;;;;;26.23;21.23;;;11.10;85.80;;;9.97;78.52;96497.50;4998174;28;20455;-74
2022/03/30 09:09:34;;;;;;;24.80;20.67;;;11.10;84.90;;;9.82;78.38;96504.31;4998452;28;20510;-74
2022/03/30 09:12:07;;;;;;;25.63;21.67;;;11.00;83.70;;;9.63;79.24;96509.97;4998235;28;20977;-75
2022/03/30 09:14:37;;;;;;;29.23;23.27;;;10.90;84.80;;;9.27;79.31;96495.09;5000446;28;20505;-75
2022/03/30 09:17:09;;;;;;;30.40;22.37;;;10.60;84.70;;;9.19;80.82;96515.19;5007838;28;20518;-76
2022/03/30 09:19:38;;;;;;;31.50;24.43;;;10.50;86.70;;;9.14;81.41;96509.69;5012475;28;20542;-74
2022/03/30 09:22:08;;;;;;;28.00;22.93;;;10.40;89.00;;;8.98;82.82;96504.03;5011766;28;20452;-73
2022/03/30 09:24:41;;;;;;;27.40;21.37;;;10.30;89.90;;;9.16;80.34;96510.25;4993709;28;20456;-75
2022/03/30 09:27:09;;;;;;;25.90;20.37;;;10.30;87.70;;;9.17;80.71;96511.88;5002699;28;20467;-75
2022/03/30 09:29:38;;;;;;;26.50;21.30;;;10.30;87.30;;;9.03;80.79;96489.84;4998295;28;20553;-75
2022/03/30 09:32:09;;;;;;;25.50;21.80;;;10.30;86.80;;;9.24;81.19;96515.25;5000082;28;20459;-76
2022/03/30 09:34:48;;;;;;;27.77;23.87;;;10.40;88.00;;;9.45;79.88;96497.53;4996745;28;20790;-73
2022/03/30 09:37:15;;;;;;;27.23;23.37;;;10.60;87.60;;;9.50;80.79;96500.31;5000773;28;20482;-73
2022/03/30 09:39:43;;;;;;;32.80;23.13;;;10.60;88.40;;;9.85;81.78;96503.81;4997507;28;20973;-76
2022/03/30 09:42:11;;;;;;;29.00;22.67;;;10.80;90.00;;;9.77;80.58;96461.06;4995677;28;20454;-73
2022/03/30 09:44:51;;;;;;;27.03;22.53;;;10.90;89.00;;;10.00;79.57;96491.59;5002000;28;20541;-81
2022/03/30 09:47:21;;;;;;;27.10;21.93;;;11.10;86.80;;;9.94;78.76;96482.59;5018835;28;21199;-77
2022/03/30 09:49:52;;;;;;;27.13;22.67;;;11.20;86.20;;;9.96;78.74;96479.69;5007277;28;20541;-80
2022/03/30 09:52:21;;;;;;;25.93;21.00;;;11.20;85.80;;;9.84;78.71;96472.50;5004122;28;20478;-77
2022/03/30 09:54:51;;;;;;;29.50;23.27;;;11.10;85.90;;;9.90;79.72;96487.69;4997141;28;20463;-72
2022/03/30 09:57:22;;;;;;;27.03;23.57;;;11.10;86.60;;;9.55;81.80;96486.09;5001291;28;20458;-74
2022/03/30 10:00:03;;;;;;;29.53;24.53;;;10.80;87.90;;;9.72;82.49;96479.88;5003314;28;20447;-76
2022/03/30 10:02:34;;;;;;;31.97;24.23;;;10.90;90.30;;;9.72;81.60;96480.69;4998021;28;20593;-74
2022/03/30 10:05:02;;;;;;;27.20;24.37;;;10.80;90.00;;;9.84;81.51;96468.97;5016959;28;20839;-70
2022/03/30 10:07:30;;;;;;;29.37;25.00;;;10.90;89.80;;;9.61;83.32;96479.72;4996303;28;20823;-75
2022/03/30 10:09:59;;;;;;;29.17;24.30;;;10.80;90.70;;;9.83;83.79;96470.88;4998801;28;20527;-75
2022/03/30 10:12:27;;;;;;;29.03;24.87;;;10.90;91.30;;;9.83;83.28;96475.44;5004483;28;20464;-73
2022/03/30 10:14:55;;;;;;;30.50;24.80;;;10.90;91.10;;;9.75;83.54;96463.19;4994465;28;20561;-73
2022/03/30 10:17:24;;;;;;;31.17;23.50;;;11.00;90.90;;;9.97;82.32;96443.53;5013456;28;20547;-74
2022/03/30 10:19:53;;;;;;;27.73;24.53;;;11.10;90.90;;;10.18;79.96;96453.50;4999520;28;20567;-73
2022/03/30 10:22:44;;;;;;;29.57;23.30;;;11.20;89.00;;;10.11;81.61;96447.50;5007073;28;20502;-75
2022/03/30 10:25:32;;;;;;;25.90;23.30;;;11.20;89.80;;;10.02;81.25;96447.13;5003885;28;20497;-73